sensor_id;sensor_type;location;lat;lon;timestamp;temperature;humidity
30001;DHT22;16845;48.670;9.000;2023-02-02T00:01:25;4.30;99.90
30001;DHT22;16845;48.670;9.000;2023-02-02T00:03:53;4.30;99.90
30001;DHT22;16845;48.670;9.000;2023-02-02T00:06:22;4.30;99.90
30001;DHT22;16845;48.670;9.000;2023-02-02T00:08:52;4.30;99.90
30001;DHT22;16845;48.670;9.000;2023-02-02T00:11:22;4.30;99.90
30001;DHT22;16845;48.670;9.000;2023-02-02T00:13:50;4.30;99.90
30001;DHT22;16845;48.670;9.000;2023-02-02T00:16:40;4.30;99.90
30001;DHT22;16845;48.670;9.000;2023-02-02T00:19:10;4.30;99.90
30001;DHT22;16845;48.670;9.000;2023-02-02T00:21:39;4.30;99.90
30001;DHT22;16845;48.670;9.000;2023-02-02T00:24:11;4.30;99.90
30001;DHT22;16845;48.670;9.000;2023-02-02T00:26:41;4.30;99.90
30001;DHT22;16845;48.670;9.000;2023-02-02T00:29:14;4.30;99.90
30001;DHT22;16845;48.670;9.000;2023-02-02T00:31:42;4.40;99.90
30001;DHT22;16845;48.670;9.000;2023-02-02T00:34:11;4.40;99.90
30001;DHT22;16845;48.670;9.000;2023-02-02T00:36:39;4.40;99.90
30001;DHT22;16845;48.670;9.000;2023-02-02T00:39:09;4.50;99.90
30001;DHT22;16845;48.670;9.000;2023-02-02T00:41:37;4.50;99.90
30001;DHT22;16845;48.670;9.000;2023-02-02T00:44:05;4.50;99.90
30001;DHT22;16845;48.670;9.000;2023-02-02T00:46:51;4.50;99.90
30001;DHT22;16845;48.670;9.000;2023-02-02T00:49:19;4.50;99.90
30001;DHT22;16845;48.670;9.000;2023-02-02T00:51:47;4.50;99.90
30001;DHT22;16845;48.670;9.000;2023-02-02T00:54:17;4.60;99.90
30001;DHT22;16845;48.670;9.000;2023-02-02T00:56:45;4.50;99.90
30001;DHT22;16845;48.670;9.000;2023-02-02T00:59:13;4.50;99.90
30001;DHT22;16845;48.670;9.000;2023-02-02T01:01:41;4.60;99.90
30001;DHT22;16845;48.670;9.000;2023-02-02T01:04:08;4.50;99.90
30001;DHT22;16845;48.670;9.000;2023-02-02T01:06:36;4.50;99.90
30001;DHT22;16845;48.670;9.000;2023-02-02T01:09:04;4.50;99.90
30001;DHT22;16845;48.670;9.000;2023-02-02T01:11:33;4.50;99.90
30001;DHT22;16845;48.670;9.000;2023-02-02T01:14:01;4.60;99.90
30001;DHT22;16845;48.670;9.000;2023-02-02T01:16:29;4.60;99.90
30001;DHT22;16845;48.670;9.000;2023-02-02T01:18:57;4.60;99.90
30001;DHT22;16845;48.670;9.000;2023-02-02T01:21:25;4.50;99.90
30001;DHT22;16845;48.670;9.000;2023-02-02T01:23:53;4.50;99.90
30001;DHT22;16845;48.670;9.000;2023-02-02T01:26:21;4.40;99.90
30001;DHT22;16845;48.670;9.000;2023-02-02T01:28:50;4.40;99.90
30001;DHT22;16845;48.670;9.000;2023-02-02T01:31:19;4.30;99.90
30001;DHT22;16845;48.670;9.000;2023-02-02T01:33:48;4.30;99.90
30001;DHT22;16845;48.670;9.000;2023-02-02T01:36:18;4.20;99.90
30001;DHT22;16845;48.670;9.000;2023-02-02T01:38:47;4.10;99.90
30001;DHT22;16845;48.670;9.000;2023-02-02T01:41:16;4.10;99.90
30001;DHT22;16845;48.670;9.000;2023-02-02T01:43:55;4.10;99.90
30001;DHT22;16845;48.670;9.000;2023-02-02T01:46:25;4.10;99.90
30001;DHT22;16845;48.670;9.000;2023-02-02T01:49:02;4.10;99.90
30001;DHT22;16845;48.670;9.000;2023-02-02T01:51:37;4.10;99.90
30001;DHT22;16845;48.670;9.000;2023-02-02T01:54:14;4.10;99.90
30001;DHT22;16845;48.670;9.000;2023-02-02T01:56:45;4.10;99.90
30001;DHT22;16845;48.670;9.000;2023-02-02T01:59:16;4.10;99.90
30001;DHT22;16845;48.670;9.000;2023-02-02T02:01:46;4.10;99.90
30001;DHT22;16845;48.670;9.000;2023-02-02T02:04:15;4.10;99.90
30001;DHT22;16845;48.670;9.000;2023-02-02T02:06:43;4.20;99.90
30001;DHT22;16845;48.670;9.000;2023-02-02T02:09:11;4.20;99.90
30001;DHT22;16845;48.670;9.000;2023-02-02T02:11:39;4.30;99.90
30001;DHT22;16845;48.670;9.000;2023-02-02T02:14:09;4.30;99.90
30001;DHT22;16845;48.670;9.000;2023-02-02T02:17:06;4.30;99.90
30001;DHT22;16845;48.670;9.000;2023-02-02T02:27:11;4.30;99.90
30001;DHT22;16845;48.670;9.000;2023-02-02T02:30:03;4.30;99.90
30001;DHT22;16845;48.670;9.000;2023-02-02T02:32:40;4.40;99.90
30001;DHT22;16845;48.670;9.000;2023-02-02T02:35:16;4.30;99.90
30001;DHT22;16845;48.670;9.000;2023-02-02T02:37:50;4.30;99.90
30001;DHT22;16845;48.670;9.000;2023-02-02T02:40:24;4.30;99.90
30001;DHT22;16845;48.670;9.000;2023-02-02T02:42:57;4.40;99.90
30001;DHT22;16845;48.670;9.000;2023-02-02T02:45:26;4.40;99.90
30001;DHT22;16845;48.670;9.000;2023-02-02T02:47:56;4.40;99.90
30001;DHT22;16845;48.670;9.000;2023-02-02T02:50:24;4.40;99.90
30001;DHT22;16845;48.670;9.000;2023-02-02T02:52:58;4.40;99.90
30001;DHT22;16845;48.670;9.000;2023-02-02T02:55:29;4.50;99.90
30001;DHT22;16845;48.670;9.000;2023-02-02T02:58:05;4.50;99.90
30001;DHT22;16845;48.670;9.000;2023-02-02T03:00:43;4.50;99.90
30001;DHT22;16845;48.670;9.000;2023-02-02T03:03:25;4.50;99.90
30001;DHT22;16845;48.670;9.000;2023-02-02T03:05:59;4.50;99.90
30001;DHT22;16845;48.670;9.000;2023-02-02T03:08:31;4.60;99.90
30001;DHT22;16845;48.670;9.000;2023-02-02T03:11:00;4.60;99.90
30001;DHT22;16845;48.670;9.000;2023-02-02T03:13:31;4.50;99.90
30001;DHT22;16845;48.670;9.000;2023-02-02T03:16:00;4.50;99.90
30001;DHT22;16845;48.670;9.000;2023-02-02T03:18:30;4.50;99.90
30001;DHT22;16845;48.670;9.000;2023-02-02T03:20:59;4.40;99.90
30001;DHT22;16845;48.670;9.000;2023-02-02T03:23:27;4.40;99.90
30001;DHT22;16845;48.670;9.000;2023-02-02T03:25:55;4.50;99.90
30001;DHT22;16845;48.670;9.000;2023-02-02T03:28:23;4.50;99.90
30001;DHT22;16845;48.670;9.000;2023-02-02T03:30:52;4.50;99.90
30001;DHT22;16845;48.670;9.000;2023-02-02T03:33:21;4.50;99.90
30001;DHT22;16845;48.670;9.000;2023-02-02T03:35:51;4.50;99.90
30001;DHT22;16845;48.670;9.000;2023-02-02T03:38:19;4.40;99.90
30001;DHT22;16845;48.670;9.000;2023-02-02T03:40:46;4.40;99.90
30001;DHT22;16845;48.670;9.000;2023-02-02T03:43:19;4.40;99.90
30001;DHT22;16845;48.670;9.000;2023-02-02T03:45:47;4.40;99.90
30001;DHT22;16845;48.670;9.000;2023-02-02T03:48:21;4.40;99.90
30001;DHT22;16845;48.670;9.000;2023-02-02T03:50:50;4.40;99.90
30001;DHT22;16845;48.670;9.000;2023-02-02T03:53:18;4.50;99.90
30001;DHT22;16845;48.670;9.000;2023-02-02T03:55:46;4.40;99.90
30001;DHT22;16845;48.670;9.000;2023-02-02T03:58:14;4.50;99.90
30001;DHT22;16845;48.670;9.000;2023-02-02T04:00:43;4.50;99.90
30001;DHT22;16845;48.670;9.000;2023-02-02T04:03:11;4.50;99.90
30001;DHT22;16845;48.670;9.000;2023-02-02T04:05:38;4.50;99.90
30001;DHT22;16845;48.670;9.000;2023-02-02T04:08:08;4.40;99.90
30001;DHT22;16845;48.670;9.000;2023-02-02T04:10:35;4.40;99.90
30001;DHT22;16845;48.670;9.000;2023-02-02T04:13:05;4.40;99.90
30001;DHT22;16845;48.670;9.000;2023-02-02T04:15:33;4.40;99.90
30001;DHT22;16845;48.670;9.000;2023-02-02T04:18:01;4.40;99.90
30001;DHT22;16845;48.670;9.000;2023-02-02T04:20:28;4.40;99.90
30001;DHT22;16845;48.670;9.000;2023-02-02T04:22:56;4.40;99.90
30001;DHT22;16845;48.670;9.000;2023-02-02T04:25:25;4.50;99.90
30001;DHT22;16845;48.670;9.000;2023-02-02T04:27:53;4.40;99.90
30001;DHT22;16845;48.670;9.000;2023-02-02T04:30:21;4.40;99.90
30001;DHT22;16845;48.670;9.000;2023-02-02T04:32:50;4.40;99.90
30001;DHT22;16845;48.670;9.000;2023-02-02T04:35:18;4.40;99.90
30001;DHT22;16845;48.670;9.000;2023-02-02T04:37:46;4.50;99.90
30001;DHT22;16845;48.670;9.000;2023-02-02T04:40:14;4.50;99.90
30001;DHT22;16845;48.670;9.000;2023-02-02T04:42:43;4.50;99.90
30001;DHT22;16845;48.670;9.000;2023-02-02T04:45:11;4.50;99.90
30001;DHT22;16845;48.670;9.000;2023-02-02T04:47:39;4.40;99.90
30001;DHT22;16845;48.670;9.000;2023-02-02T04:50:08;4.50;99.90
30001;DHT22;16845;48.670;9.000;2023-02-02T04:52:36;4.40;99.90
30001;DHT22;16845;48.670;9.000;2023-02-02T04:55:04;4.40;99.90
30001;DHT22;16845;48.670;9.000;2023-02-02T04:57:32;4.60;99.90
30001;DHT22;16845;48.670;9.000;2023-02-02T05:00:02;4.60;99.90
30001;DHT22;16845;48.670;9.000;2023-02-02T05:02:30;4.50;99.90
30001;DHT22;16845;48.670;9.000;2023-02-02T05:04:58;4.50;99.90
30001;DHT22;16845;48.670;9.000;2023-02-02T05:07:26;4.60;99.90
30001;DHT22;16845;48.670;9.000;2023-02-02T05:09:53;4.50;99.90
30001;DHT22;16845;48.670;9.000;2023-02-02T05:12:21;4.60;99.90
30001;DHT22;16845;48.670;9.000;2023-02-02T05:14:49;4.60;99.90
30001;DHT22;16845;48.670;9.000;2023-02-02T05:17:18;4.60;99.90
30001;DHT22;16845;48.670;9.000;2023-02-02T05:19:47;4.60;99.90
30001;DHT22;16845;48.670;9.000;2023-02-02T05:22:14;4.70;99.90
30001;DHT22;16845;48.670;9.000;2023-02-02T05:24:42;4.70;99.90
30001;DHT22;16845;48.670;9.000;2023-02-02T05:27:10;4.60;99.90
30001;DHT22;16845;48.670;9.000;2023-02-02T05:29:38;4.60;99.90
30001;DHT22;16845;48.670;9.000;2023-02-02T05:32:06;4.70;99.90
30001;DHT22;16845;48.670;9.000;2023-02-02T05:34:35;4.70;99.90
30001;DHT22;16845;48.670;9.000;2023-02-02T05:37:03;4.70;99.90
30001;DHT22;16845;48.670;9.000;2023-02-02T05:39:31;4.70;99.90
30001;DHT22;16845;48.670;9.000;2023-02-02T05:41:59;4.70;99.90
30001;DHT22;16845;48.670;9.000;2023-02-02T05:44:27;4.60;99.90
30001;DHT22;16845;48.670;9.000;2023-02-02T05:46:54;4.70;99.90
30001;DHT22;16845;48.670;9.000;2023-02-02T05:49:22;4.70;99.90
30001;DHT22;16845;48.670;9.000;2023-02-02T05:51:53;4.70;99.90
30001;DHT22;16845;48.670;9.000;2023-02-02T05:54:23;4.60;99.90
30001;DHT22;16845;48.670;9.000;2023-02-02T05:56:52;4.70;99.90
30001;DHT22;16845;48.670;9.000;2023-02-02T05:59:22;4.70;99.90
30001;DHT22;16845;48.670;9.000;2023-02-02T06:01:50;4.70;99.90
30001;DHT22;16845;48.670;9.000;2023-02-02T06:04:18;4.80;99.90
30001;DHT22;16845;48.670;9.000;2023-02-02T06:06:46;4.80;99.90
30001;DHT22;16845;48.670;9.000;2023-02-02T06:09:15;4.80;99.90
30001;DHT22;16845;48.670;9.000;2023-02-02T06:11:43;4.70;99.90
30001;DHT22;16845;48.670;9.000;2023-02-02T06:14:12;4.80;99.90
30001;DHT22;16845;48.670;9.000;2023-02-02T06:16:39;4.80;99.90
30001;DHT22;16845;48.670;9.000;2023-02-02T06:19:07;4.80;99.90
30001;DHT22;16845;48.670;9.000;2023-02-02T06:21:35;4.70;99.90
30001;DHT22;16845;48.670;9.000;2023-02-02T06:24:04;4.60;99.90
30001;DHT22;16845;48.670;9.000;2023-02-02T06:26:33;4.60;99.90
30001;DHT22;16845;48.670;9.000;2023-02-02T06:29:01;4.60;99.90
30001;DHT22;16845;48.670;9.000;2023-02-02T06:31:29;4.50;99.90
30001;DHT22;16845;48.670;9.000;2023-02-02T06:33:58;4.60;99.90
30001;DHT22;16845;48.670;9.000;2023-02-02T06:36:26;4.60;99.90
30001;DHT22;16845;48.670;9.000;2023-02-02T06:38:56;4.60;99.90
30001;DHT22;16845;48.670;9.000;2023-02-02T06:41:24;4.60;99.90
30001;DHT22;16845;48.670;9.000;2023-02-02T06:43:53;4.50;99.90
30001;DHT22;16845;48.670;9.000;2023-02-02T06:46:21;4.50;99.90
30001;DHT22;16845;48.670;9.000;2023-02-02T06:48:49;4.50;99.90
30001;DHT22;16845;48.670;9.000;2023-02-02T06:51:17;4.50;99.90
30001;DHT22;16845;48.670;9.000;2023-02-02T06:53:46;4.40;99.90
30001;DHT22;16845;48.670;9.000;2023-02-02T06:56:15;4.40;99.90
30001;DHT22;16845;48.670;9.000;2023-02-02T06:58:43;4.40;99.90
30001;DHT22;16845;48.670;9.000;2023-02-02T07:01:13;4.40;99.90
30001;DHT22;16845;48.670;9.000;2023-02-02T07:03:41;4.30;99.90
30001;DHT22;16845;48.670;9.000;2023-02-02T07:06:11;4.30;99.90
30001;DHT22;16845;48.670;9.000;2023-02-02T07:08:39;4.30;99.90
30001;DHT22;16845;48.670;9.000;2023-02-02T07:11:08;4.30;99.90
30001;DHT22;16845;48.670;9.000;2023-02-02T07:13:42;4.30;99.90
30001;DHT22;16845;48.670;9.000;2023-02-02T07:16:12;4.30;99.90
30001;DHT22;16845;48.670;9.000;2023-02-02T07:18:40;4.20;99.90
30001;DHT22;16845;48.670;9.000;2023-02-02T07:21:15;4.30;99.90
30001;DHT22;16845;48.670;9.000;2023-02-02T07:23:43;4.30;99.90
30001;DHT22;16845;48.670;9.000;2023-02-02T07:26:13;4.30;99.90
30001;DHT22;16845;48.670;9.000;2023-02-02T07:28:41;4.30;99.90
30001;DHT22;16845;48.670;9.000;2023-02-02T07:31:16;4.30;99.90
30001;DHT22;16845;48.670;9.000;2023-02-02T07:33:45;4.40;99.90
30001;DHT22;16845;48.670;9.000;2023-02-02T07:36:15;4.30;99.90
30001;DHT22;16845;48.670;9.000;2023-02-02T07:38:45;4.30;99.90
30001;DHT22;16845;48.670;9.000;2023-02-02T07:41:14;4.30;99.90
30001;DHT22;16845;48.670;9.000;2023-02-02T07:43:45;4.40;99.90
30001;DHT22;16845;48.670;9.000;2023-02-02T07:46:16;4.30;99.90
30001;DHT22;16845;48.670;9.000;2023-02-02T07:48:44;4.40;99.90
30001;DHT22;16845;48.670;9.000;2023-02-02T07:51:14;4.40;99.90
30001;DHT22;16845;48.670;9.000;2023-02-02T07:53:43;4.40;99.90
30001;DHT22;16845;48.670;9.000;2023-02-02T07:56:13;4.40;99.90
30001;DHT22;16845;48.670;9.000;2023-02-02T07:58:42;4.50;99.90
30001;DHT22;16845;48.670;9.000;2023-02-02T08:01:11;4.50;99.90
30001;DHT22;16845;48.670;9.000;2023-02-02T08:03:42;4.60;99.90
30001;DHT22;16845;48.670;9.000;2023-02-02T08:06:12;4.60;99.90
30001;DHT22;16845;48.670;9.000;2023-02-02T08:08:40;4.70;99.90
30001;DHT22;16845;48.670;9.000;2023-02-02T08:11:10;4.70;99.90
30001;DHT22;16845;48.670;9.000;2023-02-02T08:13:39;4.70;99.90
30001;DHT22;16845;48.670;9.000;2023-02-02T08:16:07;4.80;99.90
30001;DHT22;16845;48.670;9.000;2023-02-02T08:18:36;4.90;99.90
30001;DHT22;16845;48.670;9.000;2023-02-02T08:21:06;4.90;99.90
30001;DHT22;16845;48.670;9.000;2023-02-02T08:23:35;5.00;99.90
30001;DHT22;16845;48.670;9.000;2023-02-02T08:26:09;5.00;99.90
30001;DHT22;16845;48.670;9.000;2023-02-02T08:28:37;5.10;99.90
30001;DHT22;16845;48.670;9.000;2023-02-02T08:31:07;5.10;99.90
30001;DHT22;16845;48.670;9.000;2023-02-02T08:33:36;5.10;99.90
30001;DHT22;16845;48.670;9.000;2023-02-02T08:36:10;5.30;99.90
30001;DHT22;16845;48.670;9.000;2023-02-02T08:38:39;5.30;99.90
30001;DHT22;16845;48.670;9.000;2023-02-02T08:41:09;5.30;99.90
30001;DHT22;16845;48.670;9.000;2023-02-02T08:43:38;5.40;99.90
30001;DHT22;16845;48.670;9.000;2023-02-02T08:46:09;5.40;99.90
30001;DHT22;16845;48.670;9.000;2023-02-02T08:48:37;5.40;99.90
30001;DHT22;16845;48.670;9.000;2023-02-02T08:51:08;5.30;99.90
30001;DHT22;16845;48.670;9.000;2023-02-02T08:53:37;5.30;99.90
30001;DHT22;16845;48.670;9.000;2023-02-02T08:56:07;5.30;99.90
30001;DHT22;16845;48.670;9.000;2023-02-02T08:58:36;5.40;99.90
30001;DHT22;16845;48.670;9.000;2023-02-02T09:01:06;5.30;99.90
30001;DHT22;16845;48.670;9.000;2023-02-02T09:03:34;5.30;99.90
30001;DHT22;16845;48.670;9.000;2023-02-02T09:06:08;5.30;99.90
30001;DHT22;16845;48.670;9.000;2023-02-02T09:08:37;5.30;99.90
30001;DHT22;16845;48.670;9.000;2023-02-02T09:11:06;5.30;99.90
30001;DHT22;16845;48.670;9.000;2023-02-02T09:13:35;5.30;99.90
30001;DHT22;16845;48.670;9.000;2023-02-02T09:16:05;5.30;99.90
30001;DHT22;16845;48.670;9.000;2023-02-02T09:18:34;5.30;99.90
30001;DHT22;16845;48.670;9.000;2023-02-02T09:21:04;5.30;99.90
30001;DHT22;16845;48.670;9.000;2023-02-02T09:23:36;5.30;99.90
30001;DHT22;16845;48.670;9.000;2023-02-02T09:26:12;5.20;99.90
30001;DHT22;16845;48.670;9.000;2023-02-02T09:28:42;5.20;99.90
30001;DHT22;16845;48.670;9.000;2023-02-02T09:31:10;5.20;99.90
30001;DHT22;16845;48.670;9.000;2023-02-02T09:33:38;5.10;99.90
30001;DHT22;16845;48.670;9.000;2023-02-02T09:36:09;5.10;99.90
30001;DHT22;16845;48.670;9.000;2023-02-02T09:38:39;5.10;99.90
30001;DHT22;16845;48.670;9.000;2023-02-02T09:44:33;5.20;99.90
30001;DHT22;16845;48.670;9.000;2023-02-02T09:47:13;5.20;99.90
30001;DHT22;16845;48.670;9.000;2023-02-02T09:49:52;5.40;99.90
30001;DHT22;16845;48.670;9.000;2023-02-02T09:52:25;5.40;99.90
30001;DHT22;16845;48.670;9.000;2023-02-02T09:54:58;5.40;99.90
30001;DHT22;16845;48.670;9.000;2023-02-02T09:57:30;5.40;99.90
30001;DHT22;16845;48.670;9.000;2023-02-02T09:59:59;5.50;99.90
30001;DHT22;16845;48.670;9.000;2023-02-02T10:02:31;5.50;99.90
30001;DHT22;16845;48.670;9.000;2023-02-02T10:05:10;5.40;99.90
30001;DHT22;16845;48.670;9.000;2023-02-02T10:07:43;5.50;99.90
30001;DHT22;16845;48.670;9.000;2023-02-02T10:10:16;5.40;99.90
30001;DHT22;16845;48.670;9.000;2023-02-02T10:12:52;5.50;99.90
30001;DHT22;16845;48.670;9.000;2023-02-02T10:15:27;5.40;99.90
30001;DHT22;16845;48.670;9.000;2023-02-02T10:18:01;5.40;99.90
30001;DHT22;16845;48.670;9.000;2023-02-02T10:20:38;5.40;99.90
30001;DHT22;16845;48.670;9.000;2023-02-02T10:23:15;5.50;99.90
30001;DHT22;16845;48.670;9.000;2023-02-02T10:25:54;5.60;99.90
30001;DHT22;16845;48.670;9.000;2023-02-02T10:28:32;5.50;99.90
30001;DHT22;16845;48.670;9.000;2023-02-02T10:31:02;5.50;99.90
30001;DHT22;16845;48.670;9.000;2023-02-02T10:33:36;5.50;99.90
30001;DHT22;16845;48.670;9.000;2023-02-02T10:36:10;5.40;99.90
30001;DHT22;16845;48.670;9.000;2023-02-02T10:38:45;5.40;99.90
30001;DHT22;16845;48.670;9.000;2023-02-02T10:41:24;5.30;99.90
30001;DHT22;16845;48.670;9.000;2023-02-02T10:44:16;5.30;99.90
30001;DHT22;16845;48.670;9.000;2023-02-02T10:46:49;5.30;99.90
30001;DHT22;16845;48.670;9.000;2023-02-02T10:49:25;5.30;99.90
30001;DHT22;16845;48.670;9.000;2023-02-02T10:51:57;5.30;99.90
30001;DHT22;16845;48.670;9.000;2023-02-02T10:54:51;5.40;99.90
30001;DHT22;16845;48.670;9.000;2023-02-02T10:57:41;5.20;99.90
30001;DHT22;16845;48.670;9.000;2023-02-02T11:00:18;5.20;99.90
30001;DHT22;16845;48.670;9.000;2023-02-02T11:02:49;5.30;99.90
30001;DHT22;16845;48.670;9.000;2023-02-02T11:05:20;5.20;99.90
30001;DHT22;16845;48.670;9.000;2023-02-02T11:08:15;5.20;99.90
30001;DHT22;16845;48.670;9.000;2023-02-02T11:10:44;5.10;99.90
30001;DHT22;16845;48.670;9.000;2023-02-02T11:13:20;5.10;99.90
30001;DHT22;16845;48.670;9.000;2023-02-02T11:15:59;5.20;99.90
30001;DHT22;16845;48.670;9.000;2023-02-02T11:18:39;5.10;99.90
30001;DHT22;16845;48.670;9.000;2023-02-02T11:21:17;5.10;99.90
30001;DHT22;16845;48.670;9.000;2023-02-02T11:23:58;5.00;99.90
30001;DHT22;16845;48.670;9.000;2023-02-02T11:26:40;5.00;99.90
30001;DHT22;16845;48.670;9.000;2023-02-02T11:29:15;5.10;99.90
30001;DHT22;16845;48.670;9.000;2023-02-02T11:31:43;5.20;99.90
30001;DHT22;16845;48.670;9.000;2023-02-02T11:34:16;5.30;99.90
30001;DHT22;16845;48.670;9.000;2023-02-02T11:36:58;5.30;99.90
30001;DHT22;16845;48.670;9.000;2023-02-02T11:39:26;5.40;99.90
30001;DHT22;16845;48.670;9.000;2023-02-02T11:41:59;5.50;99.90
30001;DHT22;16845;48.670;9.000;2023-02-02T11:44:29;5.50;99.90
30001;DHT22;16845;48.670;9.000;2023-02-02T11:47:00;5.60;99.90
30001;DHT22;16845;48.670;9.000;2023-02-02T11:49:29;5.70;99.90
30001;DHT22;16845;48.670;9.000;2023-02-02T11:52:00;5.60;99.90
30001;DHT22;16845;48.670;9.000;2023-02-02T11:54:31;5.70;99.90
30001;DHT22;16845;48.670;9.000;2023-02-02T11:57:02;5.70;99.90
30001;DHT22;16845;48.670;9.000;2023-02-02T11:59:36;5.70;99.90
30001;DHT22;16845;48.670;9.000;2023-02-02T12:02:26;5.70;99.90
30001;DHT22;16845;48.670;9.000;2023-02-02T12:05:11;5.70;99.90
30001;DHT22;16845;48.670;9.000;2023-02-02T12:07:41;5.70;99.90
30001;DHT22;16845;48.670;9.000;2023-02-02T12:10:16;5.70;99.90
30001;DHT22;16845;48.670;9.000;2023-02-02T12:12:53;5.70;99.90
30001;DHT22;16845;48.670;9.000;2023-02-02T12:15:31;5.60;99.90
30001;DHT22;16845;48.670;9.000;2023-02-02T12:18:09;5.60;99.90
30001;DHT22;16845;48.670;9.000;2023-02-02T12:20:47;5.70;99.90
30001;DHT22;16845;48.670;9.000;2023-02-02T12:23:30;5.60;99.90
30001;DHT22;16845;48.670;9.000;2023-02-02T12:26:16;5.70;99.90
30001;DHT22;16845;48.670;9.000;2023-02-02T12:28:57;5.70;99.90
30001;DHT22;16845;48.670;9.000;2023-02-02T12:31:39;5.70;99.90
30001;DHT22;16845;48.670;9.000;2023-02-02T12:34:15;5.60;99.90
30001;DHT22;16845;48.670;9.000;2023-02-02T12:36:52;5.70;99.90
30001;DHT22;16845;48.670;9.000;2023-02-02T12:39:32;5.70;99.90
30001;DHT22;16845;48.670;9.000;2023-02-02T12:42:21;5.60;99.90
30001;DHT22;16845;48.670;9.000;2023-02-02T12:45:03;5.70;99.90
30001;DHT22;16845;48.670;9.000;2023-02-02T12:47:40;5.70;99.90
30001;DHT22;16845;48.670;9.000;2023-02-02T12:50:23;5.60;99.90
30001;DHT22;16845;48.670;9.000;2023-02-02T12:53:17;5.70;99.90
30001;DHT22;16845;48.670;9.000;2023-02-02T12:55:51;5.60;99.90
30001;DHT22;16845;48.670;9.000;2023-02-02T12:58:29;5.60;99.90
30001;DHT22;16845;48.670;9.000;2023-02-02T13:01:20;5.50;99.90
30001;DHT22;16845;48.670;9.000;2023-02-02T13:04:02;5.40;99.90
30001;DHT22;16845;48.670;9.000;2023-02-02T13:06:58;5.40;99.90
30001;DHT22;16845;48.670;9.000;2023-02-02T13:09:34;5.20;99.90
30001;DHT22;16845;48.670;9.000;2023-02-02T13:12:10;5.10;99.90
30001;DHT22;16845;48.670;9.000;2023-02-02T13:14:42;5.10;99.90
30001;DHT22;16845;48.670;9.000;2023-02-02T13:17:16;5.20;99.90
30001;DHT22;16845;48.670;9.000;2023-02-02T13:19:48;5.30;99.90
30001;DHT22;16845;48.670;9.000;2023-02-02T13:22:24;5.30;99.90
30001;DHT22;16845;48.670;9.000;2023-02-02T13:24:57;5.20;99.90
30001;DHT22;16845;48.670;9.000;2023-02-02T13:27:28;5.10;99.90
30001;DHT22;16845;48.670;9.000;2023-02-02T13:30:02;5.10;99.90
30001;DHT22;16845;48.670;9.000;2023-02-02T13:32:33;5.10;99.90
30001;DHT22;16845;48.670;9.000;2023-02-02T13:35:11;5.10;99.90
30001;DHT22;16845;48.670;9.000;2023-02-02T13:37:46;5.10;99.90
30001;DHT22;16845;48.670;9.000;2023-02-02T13:40:23;5.00;99.90
30001;DHT22;16845;48.670;9.000;2023-02-02T13:42:55;5.00;99.90
30001;DHT22;16845;48.670;9.000;2023-02-02T13:45:36;5.00;99.90
30001;DHT22;16845;48.670;9.000;2023-02-02T13:48:13;5.00;99.90
30001;DHT22;16845;48.670;9.000;2023-02-02T13:50:53;5.00;99.90
30001;DHT22;16845;48.670;9.000;2023-02-02T13:53:39;5.00;99.90
30001;DHT22;16845;48.670;9.000;2023-02-02T13:56:25;5.10;99.90
30001;DHT22;16845;48.670;9.000;2023-02-02T13:59:09;5.10;99.90
30001;DHT22;16845;48.670;9.000;2023-02-02T14:01:42;5.10;99.90
30001;DHT22;16845;48.670;9.000;2023-02-02T14:04:20;5.20;99.90
30001;DHT22;16845;48.670;9.000;2023-02-02T14:06:55;5.20;99.90
30001;DHT22;16845;48.670;9.000;2023-02-02T14:09:25;5.20;99.90
30001;DHT22;16845;48.670;9.000;2023-02-02T14:11:57;5.20;99.90
30001;DHT22;16845;48.670;9.000;2023-02-02T14:14:26;5.30;99.90
30001;DHT22;16845;48.670;9.000;2023-02-02T14:17:03;5.40;99.90
30001;DHT22;16845;48.670;9.000;2023-02-02T14:19:52;5.40;99.90
30001;DHT22;16845;48.670;9.000;2023-02-02T14:22:43;5.40;99.90
30001;DHT22;16845;48.670;9.000;2023-02-02T14:25:48;5.30;99.90
30001;DHT22;16845;48.670;9.000;2023-02-02T14:28:42;5.40;99.90
30001;DHT22;16845;48.670;9.000;2023-02-02T14:31:41;5.40;99.90
30001;DHT22;16845;48.670;9.000;2023-02-02T14:34:27;5.40;99.90
30001;DHT22;16845;48.670;9.000;2023-02-02T14:40:09;5.50;99.90
30001;DHT22;16845;48.670;9.000;2023-02-02T14:42:50;5.50;99.90
30001;DHT22;16845;48.670;9.000;2023-02-02T14:45:40;5.50;99.90
30001;DHT22;16845;48.670;9.000;2023-02-02T14:48:10;5.60;99.90
30001;DHT22;16845;48.670;9.000;2023-02-02T14:50:48;5.60;99.90
30001;DHT22;16845;48.670;9.000;2023-02-02T14:53:21;5.60;99.90
30001;DHT22;16845;48.670;9.000;2023-02-02T14:55:58;5.70;99.90
30001;DHT22;16845;48.670;9.000;2023-02-02T14:58:30;5.50;99.90
30001;DHT22;16845;48.670;9.000;2023-02-02T15:01:08;5.50;99.90
30001;DHT22;16845;48.670;9.000;2023-02-02T15:03:53;5.50;99.90
30001;DHT22;16845;48.670;9.000;2023-02-02T15:06:30;5.50;99.90
30001;DHT22;16845;48.670;9.000;2023-02-02T15:09:36;5.60;99.90
30001;DHT22;16845;48.670;9.000;2023-02-02T15:12:33;5.50;99.90
30001;DHT22;16845;48.670;9.000;2023-02-02T15:15:13;5.60;99.90
30001;DHT22;16845;48.670;9.000;2023-02-02T15:17:57;5.60;99.90
30001;DHT22;16845;48.670;9.000;2023-02-02T15:20:29;5.60;99.90
30001;DHT22;16845;48.670;9.000;2023-02-02T15:23:02;5.50;99.90
30001;DHT22;16845;48.670;9.000;2023-02-02T15:25:34;5.60;99.90
30001;DHT22;16845;48.670;9.000;2023-02-02T15:28:09;5.50;99.90
30001;DHT22;16845;48.670;9.000;2023-02-02T15:30:42;5.50;99.90
30001;DHT22;16845;48.670;9.000;2023-02-02T15:33:20;5.50;99.90
30001;DHT22;16845;48.670;9.000;2023-02-02T15:35:51;5.50;99.90
30001;DHT22;16845;48.670;9.000;2023-02-02T15:38:20;5.50;99.90
30001;DHT22;16845;48.670;9.000;2023-02-02T15:40:51;5.50;99.90
30001;DHT22;16845;48.670;9.000;2023-02-02T15:43:26;5.50;99.90
30001;DHT22;16845;48.670;9.000;2023-02-02T15:46:00;5.60;99.90
30001;DHT22;16845;48.670;9.000;2023-02-02T15:48:30;5.50;99.90
30001;DHT22;16845;48.670;9.000;2023-02-02T15:50:59;5.40;99.90
30001;DHT22;16845;48.670;9.000;2023-02-02T15:53:32;5.40;99.90
30001;DHT22;16845;48.670;9.000;2023-02-02T15:56:17;5.40;99.90
30001;DHT22;16845;48.670;9.000;2023-02-02T15:58:48;5.40;99.90
30001;DHT22;16845;48.670;9.000;2023-02-02T16:01:19;5.40;99.90
30001;DHT22;16845;48.670;9.000;2023-02-02T16:03:50;5.40;99.90
30001;DHT22;16845;48.670;9.000;2023-02-02T16:06:19;5.30;99.90
30001;DHT22;16845;48.670;9.000;2023-02-02T16:08:48;5.40;99.90
30001;DHT22;16845;48.670;9.000;2023-02-02T16:11:19;5.40;99.90
30001;DHT22;16845;48.670;9.000;2023-02-02T16:13:58;5.40;99.90
30001;DHT22;16845;48.670;9.000;2023-02-02T16:16:27;5.30;99.90
30001;DHT22;16845;48.670;9.000;2023-02-02T16:19:03;5.30;99.90
30001;DHT22;16845;48.670;9.000;2023-02-02T16:21:32;5.30;99.90
30001;DHT22;16845;48.670;9.000;2023-02-02T16:24:02;5.40;99.90
30001;DHT22;16845;48.670;9.000;2023-02-02T16:26:31;5.40;99.90
30001;DHT22;16845;48.670;9.000;2023-02-02T16:29:01;5.30;99.90
30001;DHT22;16845;48.670;9.000;2023-02-02T16:31:29;5.40;99.90
30001;DHT22;16845;48.670;9.000;2023-02-02T16:33:58;5.40;99.90